Stevens Point, WI

3:32 AM CST on December 08, 2016 (GMT -0600)
2nd Street North | | Change Station

Elev 1115 ft 44.54 °N, 89.59 °W | Updated 31 seconds ago

Light Snow
Light Snow
16.2 °F
Feels Like 16 °F
N
1.9
Wind Variable Wind from WSW
Gusts 3.7 mph

Today
High -- | Low -- °F
--% Chance of Precip.
Yesterday
High -- | Low -- °F
Precip. -- in
Pressure 30.04 in
Visibility 10.0 miles
Clouds Mostly Cloudy 2100 ft
Overcast 2900 ft
Windchill 16 °F
Dew Point 10 °F
Humidity 75%
Rainfall 0.00 in
Snow Depth Not available.
7:22 AM 4:18 PM
First Quarter, 61% visible
METAR KSTE 080855Z AUTO 26011G17KT 10SM -SN BKN021 OVC029 M10/M13 A3004 RMK AO2 T10991131
Pressure 30.04 in
Visibility 10.0 miles
Clouds Mostly Cloudy 2100 ft
Overcast 2900 ft
Windchill 16 °F
Dew Point 10 °F
Humidity 75%
Rainfall 0.00 in
Snow Depth Not available.
7:22 AM 4:18 PM
First Quarter, 61% visible
METAR KSTE 080855Z AUTO 26011G17KT 10SM -SN BKN021 OVC029 M10/M13 A3004 RMK AO2 T10991131

10-Day Weather Forecast

Almanac

Astronomy

Dec. 08, 2016 Rise Set
Actual Time
Civil Twilight
Nautical Twilight
Astronomical Twilight
Moon
Length of Visible Light
Length of Day
Tomorrow will be .
, % of the Moon is Illuminated

Today's Extremes

State Highs State Lows

Community

WunderPhotos

Upload Photos

1,956,259 photos uploaded!

WunderBlog® & News

Nearby

Air Quality

  Air Quality AQ Index Pollutant
Not available.

Snow Depth

Station Depth Elevation

Earthquake Activity

City Distance Mag. Time & Date
Minimum magnitude displayed is 2.5.

Coastal Water Temperatures

Place Temperature

Stations

Nearby Weather Stations

Station Location Temp. Windchill Dew Point Humidity Wind Precip. Elev Updated Type
                   

Watches & Warnings

There are currently no watches in effect.